createdAt,value
2023-03-15T00:01:21.013Z,99.90
2023-03-15T00:03:48.852Z,99.90
2023-03-15T00:06:16.683Z,99.90
2023-03-15T00:08:47.739Z,99.90
2023-03-15T00:11:16.986Z,99.90
2023-03-15T00:13:45.522Z,99.90
2023-03-15T00:16:17.555Z,99.90
2023-03-15T00:18:47.950Z,99.90
2023-03-15T00:21:15.755Z,99.90
2023-03-15T00:23:43.471Z,99.90
2023-03-15T00:26:11.356Z,99.90
2023-03-15T00:28:39.471Z,99.90
2023-03-15T00:31:21.936Z,99.90
2023-03-15T00:33:53.942Z,99.90
2023-03-15T00:36:24.258Z,99.90
2023-03-15T00:38:56.426Z,99.90
2023-03-15T00:41:24.554Z,99.90
2023-03-15T00:43:52.571Z,99.90
2023-03-15T00:46:20.725Z,99.90
2023-03-15T00:48:49.547Z,99.90
2023-03-15T00:51:21.235Z,99.90
2023-03-15T00:53:50.242Z,99.90
2023-03-15T00:56:24.792Z,99.90
2023-03-15T00:58:55.524Z,99.90
2023-03-15T01:01:26.621Z,99.90
2023-03-15T01:03:54.212Z,99.90
2023-03-15T01:06:24.192Z,99.90
2023-03-15T01:08:52.155Z,99.90
2023-03-15T01:11:24.307Z,99.90
2023-03-15T01:13:53.297Z,99.90
2023-03-15T01:16:21.916Z,99.90
2023-03-15T01:18:51.578Z,99.90
2023-03-15T01:21:22.522Z,99.90
2023-03-15T01:23:50.800Z,99.90
2023-03-15T01:26:21.248Z,99.90
2023-03-15T01:28:49.248Z,99.90
2023-03-15T01:31:23.267Z,99.90
2023-03-15T01:33:51.078Z,99.90
2023-03-15T01:36:19.074Z,99.90
2023-03-15T01:38:46.866Z,99.90
2023-03-15T01:41:16.607Z,99.90
2023-03-15T01:43:47.435Z,99.90
2023-03-15T01:46:35.226Z,99.90
2023-03-15T01:49:33.442Z,99.90
2023-03-15T01:52:13.867Z,99.90
2023-03-15T01:55:19.667Z,99.90
2023-03-15T01:58:01.460Z,99.90
2023-03-15T02:00:31.198Z,99.90
2023-03-15T02:03:18.898Z,99.90
2023-03-15T02:05:57.305Z,99.90
2023-03-15T02:08:45.413Z,99.90
2023-03-15T02:11:14.911Z,99.90
2023-03-15T02:13:45.003Z,99.90
2023-03-15T02:16:14.286Z,99.90
2023-03-15T02:18:50.486Z,99.90
2023-03-15T02:22:04.320Z,99.90
2023-03-15T02:24:48.764Z,99.90
2023-03-15T02:27:30.634Z,99.90
2023-03-15T02:29:59.062Z,99.90
2023-03-15T02:32:27.656Z,99.90
2023-03-15T02:34:57.915Z,99.90
2023-03-15T02:37:25.690Z,99.90
2023-03-15T02:39:53.887Z,99.90
2023-03-15T02:42:21.462Z,99.90
2023-03-15T02:44:50.893Z,99.90
2023-03-15T02:47:23.672Z,99.90
2023-03-15T02:49:53.908Z,99.90
2023-03-15T02:52:22.672Z,99.90
2023-03-15T02:54:50.462Z,99.90
2023-03-15T02:57:19.371Z,99.90
2023-03-15T02:59:51.023Z,99.90
2023-03-15T03:02:19.201Z,99.90
2023-03-15T03:04:47.132Z,99.90
2023-03-15T03:07:15.150Z,99.90
2023-03-15T03:09:47.957Z,99.90
2023-03-15T03:12:16.882Z,99.90
2023-03-15T03:14:44.469Z,99.90
2023-03-15T03:17:16.425Z,99.90
2023-03-15T03:19:44.620Z,99.90
2023-03-15T03:22:13.444Z,99.90
2023-03-15T03:24:45.905Z,99.90
2023-03-15T03:27:15.812Z,99.90
2023-03-15T03:29:45.915Z,99.90
2023-03-15T03:32:13.691Z,99.90
2023-03-15T03:34:41.299Z,99.90
2023-03-15T03:37:09.253Z,99.90
2023-03-15T03:39:52.964Z,99.90
2023-03-15T03:42:21.233Z,99.90
2023-03-15T03:44:50.370Z,99.90
2023-03-15T03:47:18.512Z,99.90
2023-03-15T03:49:45.997Z,99.90
2023-03-15T03:52:13.471Z,99.90
2023-03-15T03:54:42.678Z,99.90
2023-03-15T03:57:11.077Z,99.90
2023-03-15T03:59:39.504Z,99.90
2023-03-15T04:02:07.209Z,99.90
2023-03-15T04:04:35.841Z,99.90
2023-03-15T04:07:04.848Z,99.90
2023-03-15T04:09:38.116Z,99.90
2023-03-15T04:12:07.416Z,99.90
2023-03-15T04:14:36.563Z,99.90
2023-03-15T04:17:08.793Z,99.90
2023-03-15T04:19:36.920Z,99.90
2023-03-15T04:22:07.857Z,99.90
2023-03-15T04:25:02.053Z,99.90
2023-03-15T04:27:58.790Z,99.90
2023-03-15T04:30:58.836Z,99.90
2023-03-15T04:33:45.209Z,99.90
2023-03-15T04:36:18.470Z,99.90
2023-03-15T04:39:06.048Z,99.90
2023-03-15T04:41:52.178Z,99.90
2023-03-15T04:44:35.101Z,99.90
2023-03-15T04:47:15.507Z,99.90
2023-03-15T04:49:54.472Z,99.90
2023-03-15T04:52:45.272Z,99.90
2023-03-15T04:55:26.259Z,99.90
2023-03-15T04:58:18.080Z,99.90
2023-03-15T05:01:05.103Z,99.90
2023-03-15T05:03:51.609Z,99.90
2023-03-15T05:06:36.242Z,99.90
2023-03-15T05:09:39.784Z,99.90
2023-03-15T05:12:25.836Z,99.90
2023-03-15T05:14:59.274Z,99.90
2023-03-15T05:17:37.429Z,99.90
2023-03-15T05:20:42.936Z,99.90
2023-03-15T05:23:30.542Z,99.90
2023-03-15T05:26:18.992Z,99.90
2023-03-15T05:29:09.209Z,99.90
2023-03-15T05:31:55.217Z,99.90
2023-03-15T05:34:48.577Z,99.90
2023-03-15T05:37:35.789Z,99.90
2023-03-15T05:40:21.407Z,99.90
2023-03-15T05:43:14.983Z,99.90
2023-03-15T05:46:01.001Z,99.90
2023-03-15T05:48:49.614Z,99.90
2023-03-15T05:51:47.110Z,99.90
2023-03-15T05:54:32.998Z,99.90
2023-03-15T05:57:10.989Z,99.90
2023-03-15T05:59:58.624Z,99.90
2023-03-15T06:02:42.836Z,99.90
2023-03-15T06:05:39.662Z,99.90
2023-03-15T06:08:12.426Z,99.90
2023-03-15T06:10:43.689Z,99.90
2023-03-15T06:13:12.323Z,99.90
2023-03-15T06:15:41.083Z,99.90
2023-03-15T06:18:10.553Z,99.90
2023-03-15T06:20:38.631Z,99.90
2023-03-15T06:23:10.762Z,99.90
2023-03-15T06:25:45.730Z,99.90
2023-03-15T06:28:14.263Z,99.90
2023-03-15T06:30:47.589Z,99.90
2023-03-15T06:33:16.417Z,99.90
2023-03-15T06:35:44.106Z,99.90
2023-03-15T06:38:13.838Z,99.90
2023-03-15T06:40:41.421Z,99.90
2023-03-15T06:43:08.990Z,99.90
2023-03-15T06:45:36.826Z,99.90
2023-03-15T06:48:05.203Z,99.90
2023-03-15T06:50:46.007Z,99.90
2023-03-15T06:53:14.854Z,99.90
2023-03-15T06:55:42.954Z,99.90
2023-03-15T06:58:10.626Z,99.90
2023-03-15T07:00:38.266Z,99.90
2023-03-15T07:03:05.771Z,99.90
2023-03-15T07:05:33.274Z,99.90
2023-03-15T07:08:00.810Z,99.90
2023-03-15T07:10:28.224Z,99.90
2023-03-15T07:12:56.540Z,99.90
2023-03-15T07:15:23.991Z,99.90
2023-03-15T07:17:51.478Z,99.90
2023-03-15T07:20:19.077Z,99.90
2023-03-15T07:22:46.502Z,99.90
2023-03-15T07:25:14.301Z,99.90
2023-03-15T07:27:41.700Z,99.90
2023-03-15T07:30:10.072Z,99.90
2023-03-15T07:32:39.063Z,99.90
2023-03-15T07:35:06.888Z,99.90
2023-03-15T07:37:34.369Z,99.90
2023-03-15T07:40:09.792Z,99.90
2023-03-15T07:42:37.742Z,99.90
2023-03-15T07:45:06.918Z,99.90
2023-03-15T07:47:34.483Z,99.90
2023-03-15T07:50:08.814Z,99.90
2023-03-15T07:52:36.259Z,99.90
2023-03-15T07:55:04.896Z,99.90
2023-03-15T07:57:32.400Z,99.90
2023-03-15T07:59:59.938Z,99.90
2023-03-15T08:02:29.570Z,99.90
2023-03-15T08:04:58.853Z,99.90
2023-03-15T08:07:26.503Z,99.90
2023-03-15T08:09:54.203Z,99.90
2023-03-15T08:12:21.673Z,99.90
2023-03-15T08:14:49.903Z,99.90
2023-03-15T08:17:18.029Z,99.90
2023-03-15T08:19:45.497Z,99.90
2023-03-15T08:22:13.979Z,99.90
2023-03-15T08:24:41.437Z,99.90
2023-03-15T08:27:09.411Z,99.90
2023-03-15T08:29:37.320Z,99.90
2023-03-15T08:32:05.059Z,99.90
2023-03-15T08:34:34.902Z,99.90
2023-03-15T08:37:02.357Z,99.90
2023-03-15T08:39:29.767Z,99.90
2023-03-15T08:41:57.252Z,99.90
2023-03-15T08:44:24.666Z,99.90
2023-03-15T08:46:52.166Z,99.90
2023-03-15T08:49:19.686Z,99.90
2023-03-15T08:51:47.261Z,99.90
2023-03-15T08:54:14.959Z,99.90
2023-03-15T08:56:42.833Z,99.90
2023-03-15T08:59:12.788Z,99.90
2023-03-15T09:01:41.937Z,99.90
2023-03-15T09:04:09.428Z,99.90
2023-03-15T09:06:37.215Z,99.90
2023-03-15T09:09:04.730Z,99.90
2023-03-15T09:11:32.094Z,99.90
2023-03-15T09:13:59.570Z,99.90
2023-03-15T09:16:26.996Z,99.90
2023-03-15T09:18:54.511Z,99.90
2023-03-15T09:21:21.970Z,99.90
2023-03-15T09:23:49.389Z,99.90
2023-03-15T09:26:16.884Z,99.90
2023-03-15T09:28:44.298Z,99.90
2023-03-15T09:31:11.814Z,99.90
2023-03-15T09:33:39.261Z,99.90
2023-03-15T09:36:06.906Z,99.90
2023-03-15T09:38:34.304Z,99.90
2023-03-15T09:41:03.784Z,99.90
2023-03-15T09:43:57.468Z,99.90
2023-03-15T09:46:52.681Z,99.90
2023-03-15T09:49:47.129Z,99.90
2023-03-15T09:52:56.375Z,99.90
2023-03-15T09:55:28.272Z,99.90
2023-03-15T09:58:01.829Z,99.90
2023-03-15T10:00:35.046Z,99.00
2023-03-15T10:03:07.207Z,96.10
2023-03-15T10:05:52.233Z,95.60
2023-03-15T10:08:21.409Z,95.00
2023-03-15T10:11:12.705Z,95.60
2023-03-15T10:14:01.899Z,92.00
2023-03-15T10:16:41.963Z,77.70
2023-03-15T10:19:25.375Z,72.10
2023-03-15T10:21:56.663Z,71.00
2023-03-15T10:24:27.139Z,65.70
2023-03-15T10:26:55.014Z,62.10
2023-03-15T10:29:26.986Z,64.10
2023-03-15T10:31:55.218Z,72.10
2023-03-15T10:34:26.161Z,77.00
2023-03-15T10:36:55.213Z,73.40
2023-03-15T10:39:24.973Z,73.70
2023-03-15T10:41:52.411Z,70.30
2023-03-15T10:44:24.317Z,69.50
2023-03-15T10:47:16.036Z,68.10
2023-03-15T10:49:47.717Z,68.70
2023-03-15T10:52:34.401Z,67.50
2023-03-15T10:55:14.125Z,67.00
2023-03-15T10:57:53.232Z,64.10
2023-03-15T11:00:32.948Z,65.90
2023-03-15T11:03:16.669Z,65.80
2023-03-15T11:05:47.102Z,68.50
2023-03-15T11:08:17.748Z,72.20
2023-03-15T11:10:47.349Z,70.80
2023-03-15T11:13:22.698Z,89.00
2023-03-15T11:16:18.606Z,92.00
2023-03-15T11:19:01.583Z,97.50
2023-03-15T11:21:36.877Z,99.90
2023-03-15T11:24:06.073Z,99.90
2023-03-15T11:26:39.010Z,99.90
2023-03-15T11:29:28.328Z,99.90
2023-03-15T11:31:56.831Z,99.90
2023-03-15T11:34:39.842Z,99.90
2023-03-15T11:37:18.576Z,99.90
2023-03-15T11:40:18.393Z,99.90
2023-03-15T11:43:15.482Z,99.90
2023-03-15T11:45:56.542Z,99.90
2023-03-15T11:48:48.686Z,99.90
2023-03-15T11:51:16.553Z,99.90
2023-03-15T11:53:50.177Z,99.90
2023-03-15T11:56:27.833Z,99.90
2023-03-15T11:59:11.383Z,99.90
2023-03-15T12:01:46.229Z,99.90
2023-03-15T12:04:25.764Z,99.90
2023-03-15T12:06:56.701Z,99.90
2023-03-15T12:09:33.320Z,99.90
2023-03-15T12:12:26.984Z,99.90
2023-03-15T12:15:19.339Z,99.90
2023-03-15T12:17:51.286Z,99.90
2023-03-15T12:20:28.139Z,99.90
2023-03-15T12:23:35.504Z,99.90
2023-03-15T12:26:02.919Z,99.90
2023-03-15T12:28:54.806Z,99.90
2023-03-15T12:31:47.825Z,99.90
2023-03-15T12:34:26.202Z,99.90
2023-03-15T12:37:01.834Z,99.90
2023-03-15T12:39:37.290Z,99.90
2023-03-15T12:42:05.355Z,99.90
2023-03-15T12:44:32.691Z,99.90
2023-03-15T12:47:01.865Z,99.90
2023-03-15T12:49:30.944Z,99.90
2023-03-15T12:52:02.561Z,99.90
2023-03-15T12:54:54.251Z,99.90
2023-03-15T12:57:30.773Z,99.90
2023-03-15T13:00:03.350Z,99.90
2023-03-15T13:02:44.815Z,99.90
2023-03-15T13:05:30.947Z,99.90
2023-03-15T13:08:23.854Z,99.90
2023-03-15T13:10:51.213Z,99.90
2023-03-15T13:13:24.967Z,99.90
2023-03-15T13:16:05.633Z,99.90
2023-03-15T13:18:42.055Z,99.90
2023-03-15T13:21:21.091Z,99.90
2023-03-15T13:23:54.244Z,99.90
2023-03-15T13:26:33.397Z,99.90
2023-03-15T13:29:17.533Z,99.90
2023-03-15T13:31:46.804Z,99.90
2023-03-15T13:34:16.301Z,99.90
2023-03-15T13:36:53.480Z,99.90
2023-03-15T13:39:24.049Z,99.90
2023-03-15T13:41:58.857Z,99.90
2023-03-15T13:44:27.946Z,99.90
2023-03-15T13:46:56.344Z,99.90
2023-03-15T13:49:24.942Z,99.90
2023-03-15T13:51:53.438Z,99.90
2023-03-15T13:54:30.633Z,99.90
2023-03-15T13:57:03.639Z,99.90
2023-03-15T13:59:35.658Z,99.90
2023-03-15T14:02:05.759Z,99.90
2023-03-15T14:04:38.246Z,99.90
2023-03-15T14:07:13.448Z,99.90
2023-03-15T14:09:40.878Z,99.90
2023-03-15T14:12:18.779Z,99.90
2023-03-15T14:14:51.589Z,99.90
2023-03-15T14:17:30.271Z,99.90
2023-03-15T14:20:09.001Z,99.90
2023-03-15T14:22:41.162Z,99.90
2023-03-15T14:25:29.259Z,99.90
2023-03-15T14:28:02.482Z,99.90
2023-03-15T14:30:36.010Z,99.90
2023-03-15T14:33:08.243Z,99.90
2023-03-15T14:35:35.684Z,99.90
2023-03-15T14:38:15.125Z,99.90
2023-03-15T14:40:42.812Z,99.90
2023-03-15T14:43:11.060Z,99.90
2023-03-15T14:45:41.541Z,99.90
2023-03-15T14:48:13.866Z,99.90
2023-03-15T14:50:43.838Z,99.90
2023-03-15T14:53:17.349Z,99.90
2023-03-15T14:55:44.740Z,99.90
2023-03-15T14:58:15.153Z,99.90
2023-03-15T15:00:44.245Z,99.90
2023-03-15T15:03:19.781Z,99.90
2023-03-15T15:05:47.446Z,99.90
2023-03-15T15:08:18.111Z,99.90
2023-03-15T15:10:47.124Z,99.90
2023-03-15T15:13:23.544Z,99.90
2023-03-15T15:15:55.998Z,99.90
2023-03-15T15:18:29.358Z,99.90
2023-03-15T15:20:59.836Z,99.90
2023-03-15T15:23:47.450Z,99.90
2023-03-15T15:26:26.294Z,99.90
2023-03-15T15:28:56.533Z,99.90
2023-03-15T15:31:26.150Z,99.90
2023-03-15T15:33:55.033Z,99.90
2023-03-15T15:36:32.586Z,99.90
2023-03-15T15:39:07.174Z,99.90
2023-03-15T15:41:35.291Z,99.90
2023-03-15T15:44:02.922Z,99.90
2023-03-15T15:46:30.345Z,99.90
2023-03-15T15:48:58.856Z,99.90
2023-03-15T15:51:31.922Z,99.90
2023-03-15T15:54:01.433Z,99.90
2023-03-15T15:56:33.815Z,99.90
2023-03-15T15:59:03.156Z,99.90
2023-03-15T16:01:31.559Z,99.90
2023-03-15T16:04:00.486Z,99.90
2023-03-15T16:06:28.041Z,99.90
2023-03-15T16:08:56.151Z,99.90
2023-03-15T16:11:23.800Z,99.90
2023-03-15T16:13:54.004Z,99.90
2023-03-15T16:16:22.064Z,99.90
2023-03-15T16:18:49.793Z,99.90
2023-03-15T16:21:26.721Z,99.90
2023-03-15T16:24:16.613Z,99.90
2023-03-15T16:26:45.541Z,99.90
2023-03-15T16:29:23.914Z,99.90
2023-03-15T16:31:51.383Z,99.90
2023-03-15T16:34:20.058Z,99.90
2023-03-15T16:36:54.872Z,99.90
2023-03-15T16:39:22.760Z,99.90
2023-03-15T16:41:52.131Z,99.90
2023-03-15T16:44:20.878Z,99.90
2023-03-15T16:46:48.818Z,99.90
2023-03-15T16:49:16.531Z,99.90
2023-03-15T16:51:47.641Z,99.90
2023-03-15T16:54:27.320Z,99.90
2023-03-15T16:57:02.165Z,99.90
2023-03-15T16:59:29.888Z,99.90
2023-03-15T17:01:57.350Z,99.90
2023-03-15T17:04:24.769Z,99.90
2023-03-15T17:06:52.156Z,99.90
2023-03-15T17:09:22.419Z,99.90
2023-03-15T17:11:55.987Z,99.90
2023-03-15T17:14:32.145Z,99.90
2023-03-15T17:17:02.085Z,99.90
2023-03-15T17:19:29.455Z,99.90
2023-03-15T17:21:56.865Z,99.90
2023-03-15T17:24:24.305Z,99.90
2023-03-15T17:26:51.743Z,99.90
2023-03-15T17:29:19.118Z,99.90
2023-03-15T17:31:48.264Z,99.90
2023-03-15T17:34:16.520Z,99.90
2023-03-15T17:36:43.944Z,99.90
2023-03-15T17:39:15.654Z,99.90
2023-03-15T17:41:48.286Z,99.90
2023-03-15T17:44:16.123Z,99.90
2023-03-15T17:46:43.714Z,99.90
2023-03-15T17:49:13.309Z,99.90
2023-03-15T17:51:41.242Z,99.90
2023-03-15T17:54:17.820Z,99.90
2023-03-15T17:56:45.322Z,99.90
2023-03-15T17:59:13.528Z,99.90
2023-03-15T18:01:43.940Z,99.90
2023-03-15T18:04:16.326Z,99.90
2023-03-15T18:06:43.687Z,99.90
2023-03-15T18:09:12.638Z,99.90
2023-03-15T18:11:42.558Z,99.90
2023-03-15T18:14:15.073Z,99.90
2023-03-15T18:16:43.467Z,99.90
2023-03-15T18:19:11.345Z,99.90
2023-03-15T18:21:38.812Z,99.90
2023-03-15T18:24:06.477Z,99.90
2023-03-15T18:26:33.913Z,99.90
2023-03-15T18:29:01.716Z,99.90
2023-03-15T18:31:29.215Z,99.90
2023-03-15T18:33:56.642Z,99.90
2023-03-15T18:36:28.196Z,99.90
2023-03-15T18:38:55.802Z,99.90
2023-03-15T18:41:25.009Z,99.90
2023-03-15T18:43:52.737Z,99.90
2023-03-15T18:46:25.135Z,99.90
2023-03-15T18:48:53.893Z,99.90
2023-03-15T18:51:25.685Z,99.90
2023-03-15T18:53:53.235Z,99.90
2023-03-15T18:56:24.141Z,99.90
2023-03-15T18:58:52.784Z,99.90
2023-03-15T19:01:24.723Z,99.90
2023-03-15T19:03:53.386Z,99.90
2023-03-15T19:06:21.954Z,99.90
2023-03-15T19:08:53.424Z,99.90
2023-03-15T19:11:23.853Z,99.90
2023-03-15T19:13:51.636Z,99.90
2023-03-15T19:16:23.027Z,99.90
2023-03-15T19:18:51.718Z,99.90
2023-03-15T19:21:19.767Z,99.90
2023-03-15T19:23:47.671Z,99.90
2023-03-15T19:26:15.158Z,99.90
2023-03-15T19:28:42.768Z,99.90
2023-03-15T19:31:10.283Z,99.90
2023-03-15T19:33:38.471Z,99.90
2023-03-15T19:36:07.925Z,99.90
2023-03-15T19:38:40.318Z,99.90
2023-03-15T19:41:10.205Z,99.90
2023-03-15T19:43:38.675Z,99.90
2023-03-15T19:46:08.030Z,99.90
2023-03-15T19:48:36.414Z,99.90
2023-03-15T19:51:04.565Z,99.90
2023-03-15T19:53:32.467Z,99.90
2023-03-15T19:56:04.989Z,99.90
2023-03-15T19:58:33.156Z,99.90
2023-03-15T20:01:01.481Z,99.90
2023-03-15T20:03:28.957Z,99.90
2023-03-15T20:05:56.388Z,99.90
2023-03-15T20:08:25.343Z,99.90
2023-03-15T20:11:00.044Z,99.90
2023-03-15T20:13:27.576Z,99.90
2023-03-15T20:15:55.128Z,99.90
2023-03-15T20:18:22.579Z,99.90
2023-03-15T20:20:51.228Z,99.90
2023-03-15T20:23:19.408Z,99.90
2023-03-15T20:25:47.172Z,99.90
2023-03-15T20:28:14.561Z,99.90
2023-03-15T20:30:44.194Z,99.90
2023-03-15T20:33:11.757Z,99.90
2023-03-15T20:35:39.136Z,99.90
2023-03-15T20:38:08.535Z,99.90
2023-03-15T20:40:41.056Z,99.90
2023-03-15T20:43:09.834Z,99.90
2023-03-15T20:45:38.827Z,99.90
2023-03-15T20:48:06.424Z,99.90
2023-03-15T20:50:33.972Z,99.90
2023-03-15T20:53:05.100Z,99.90
2023-03-15T20:55:32.478Z,99.90
2023-03-15T20:58:01.002Z,99.90
2023-03-15T21:00:29.203Z,99.90
2023-03-15T21:02:56.608Z,99.90
2023-03-15T21:05:24.350Z,99.90
2023-03-15T21:07:52.626Z,99.90
2023-03-15T21:10:21.448Z,99.90
2023-03-15T21:12:49.061Z,99.90
2023-03-15T21:15:19.151Z,99.90
2023-03-15T21:17:49.515Z,99.90
2023-03-15T21:20:18.119Z,99.90
2023-03-15T21:22:46.633Z,99.90
2023-03-15T21:25:14.288Z,99.90
2023-03-15T21:27:42.690Z,99.90
2023-03-15T21:30:14.595Z,99.90
2023-03-15T21:32:43.142Z,99.90
2023-03-15T21:35:11.035Z,99.90
2023-03-15T21:37:38.445Z,99.90
2023-03-15T21:40:07.026Z,99.90
2023-03-15T21:42:35.356Z,99.90
2023-03-15T21:45:03.258Z,99.90
2023-03-15T21:47:31.228Z,99.90
2023-03-15T21:49:58.629Z,99.90
2023-03-15T21:52:28.003Z,99.90
2023-03-15T21:54:55.425Z,99.90
2023-03-15T21:57:22.924Z,99.90
2023-03-15T21:59:51.076Z,99.90
2023-03-15T22:02:18.588Z,99.90
2023-03-15T22:04:46.126Z,99.90
2023-03-15T22:07:13.678Z,99.90
2023-03-15T22:09:41.889Z,99.90
2023-03-15T22:12:09.934Z,99.90
2023-03-15T22:14:37.457Z,99.90
2023-03-15T22:17:05.052Z,99.90
2023-03-15T22:19:32.544Z,99.90
2023-03-15T22:22:00.610Z,99.90
2023-03-15T22:24:28.000Z,99.90
2023-03-15T22:26:56.224Z,99.90
2023-03-15T22:29:23.666Z,99.90
2023-03-15T22:31:51.675Z,99.90
2023-03-15T22:34:19.814Z,99.90
2023-03-15T22:36:47.242Z,99.90
2023-03-15T22:39:14.689Z,99.90
2023-03-15T22:41:42.104Z,99.90
2023-03-15T22:44:10.489Z,99.90
2023-03-15T22:46:38.032Z,99.90
2023-03-15T22:49:05.446Z,99.90
2023-03-15T22:51:35.802Z,99.90
2023-03-15T22:54:03.206Z,99.90
2023-03-15T22:56:30.641Z,99.90
2023-03-15T22:58:58.097Z,99.90
2023-03-15T23:01:25.629Z,99.90
2023-03-15T23:03:53.140Z,99.90
2023-03-15T23:06:20.643Z,99.90
2023-03-15T23:08:48.085Z,99.90
2023-03-15T23:11:18.118Z,99.90
2023-03-15T23:13:48.779Z,99.90
2023-03-15T23:16:19.716Z,99.90
2023-03-15T23:18:48.730Z,99.90
2023-03-15T23:21:16.195Z,99.90
2023-03-15T23:23:43.753Z,99.90
2023-03-15T23:26:13.064Z,99.90
2023-03-15T23:28:40.561Z,99.90
2023-03-15T23:31:08.183Z,99.90
2023-03-15T23:33:35.765Z,99.90
2023-03-15T23:36:05.853Z,99.90
2023-03-15T23:38:34.648Z,99.90
2023-03-15T23:41:02.829Z,99.90
2023-03-15T23:43:30.316Z,99.90
2023-03-15T23:45:59.782Z,99.90
2023-03-15T23:48:27.657Z,99.90
2023-03-15T23:50:57.049Z,99.90
2023-03-15T23:53:25.831Z,99.90
2023-03-15T23:55:53.292Z,99.90
2023-03-15T23:58:22.010Z,99.90
